sensor_id;sensor_type;location;lat;lon;timestamp;pressure;altitude;pressure_sealevel;temperature;humidity
20656;BME280;10487;53.320;8.672;2023-04-28T00:02:49;101557.34;;;2.80;49.35
20656;BME280;10487;53.320;8.672;2023-04-28T00:05:51;101558.38;;;2.74;49.34
20656;BME280;10487;53.320;8.672;2023-04-28T00:08:53;101549.75;;;2.69;49.21
20656;BME280;10487;53.320;8.672;2023-04-28T00:11:55;101545.44;;;2.67;49.28
20656;BME280;10487;53.320;8.672;2023-04-28T00:14:56;101548.19;;;2.64;49.42
20656;BME280;10487;53.320;8.672;2023-04-28T00:17:58;101544.81;;;2.59;49.43
20656;BME280;10487;53.320;8.672;2023-04-28T00:20:59;101544.00;;;2.55;49.44
20656;BME280;10487;53.320;8.672;2023-04-28T00:24:02;101531.00;;;2.49;49.16
20656;BME280;10487;53.320;8.672;2023-04-28T00:27:04;101525.00;;;2.44;49.25
20656;BME280;10487;53.320;8.672;2023-04-28T00:30:06;101527.81;;;2.38;49.33
20656;BME280;10487;53.320;8.672;2023-04-28T00:33:08;101525.25;;;2.35;49.39
20656;BME280;10487;53.320;8.672;2023-04-28T00:36:10;101524.44;;;2.33;49.58
20656;BME280;10487;53.320;8.672;2023-04-28T00:39:11;101515.72;;;2.31;49.32
20656;BME280;10487;53.320;8.672;2023-04-28T00:42:13;101522.75;;;2.31;49.27
20656;BME280;10487;53.320;8.672;2023-04-28T00:45:16;101518.34;;;2.31;49.47
20656;BME280;10487;53.320;8.672;2023-04-28T00:48:18;101515.75;;;2.30;49.31
20656;BME280;10487;53.320;8.672;2023-04-28T00:51:20;101505.22;;;2.30;49.42
20656;BME280;10487;53.320;8.672;2023-04-28T00:54:22;101506.16;;;2.27;49.61
20656;BME280;10487;53.320;8.672;2023-04-28T00:57:23;101502.72;;;2.25;49.38
20656;BME280;10487;53.320;8.672;2023-04-28T01:00:25;101496.69;;;2.20;49.70
20656;BME280;10487;53.320;8.672;2023-04-28T01:03:27;101499.41;;;2.17;49.75
20656;BME280;10487;53.320;8.672;2023-04-28T01:06:29;101494.25;;;2.14;49.42
20656;BME280;10487;53.320;8.672;2023-04-28T01:09:32;101488.13;;;2.12;49.56
20656;BME280;10487;53.320;8.672;2023-04-28T01:12:33;101483.84;;;2.09;49.27
20656;BME280;10487;53.320;8.672;2023-04-28T01:15:35;101483.88;;;2.08;49.83
20656;BME280;10487;53.320;8.672;2023-04-28T01:18:37;101487.44;;;2.07;49.80
20656;BME280;10487;53.320;8.672;2023-04-28T01:21:42;101487.50;;;2.04;49.88
20656;BME280;10487;53.320;8.672;2023-04-28T01:24:43;101474.34;;;2.04;49.57
20656;BME280;10487;53.320;8.672;2023-04-28T01:27:45;101480.50;;;2.03;49.67
20656;BME280;10487;53.320;8.672;2023-04-28T01:30:47;101472.69;;;2.00;49.90
20656;BME280;10487;53.320;8.672;2023-04-28T01:33:48;101474.50;;;1.98;49.87
20656;BME280;10487;53.320;8.672;2023-04-28T01:36:50;101467.59;;;1.94;49.94
20656;BME280;10487;53.320;8.672;2023-04-28T01:39:52;101453.63;;;1.92;49.79
20656;BME280;10487;53.320;8.672;2023-04-28T01:42:53;101450.13;;;1.90;49.82
20656;BME280;10487;53.320;8.672;2023-04-28T01:45:55;101447.56;;;1.88;50.12
20656;BME280;10487;53.320;8.672;2023-04-28T01:48:57;101443.19;;;1.87;49.91
20656;BME280;10487;53.320;8.672;2023-04-28T01:51:58;101447.59;;;1.87;49.93
20656;BME280;10487;53.320;8.672;2023-04-28T01:55:00;101439.75;;;1.85;49.80
20656;BME280;10487;53.320;8.672;2023-04-28T01:58:01;101442.41;;;1.84;49.86
20656;BME280;10487;53.320;8.672;2023-04-28T02:01:03;101436.34;;;1.82;49.96
20656;BME280;10487;53.320;8.672;2023-04-28T02:04:05;101435.53;;;1.78;50.08
20656;BME280;10487;53.320;8.672;2023-04-28T02:07:07;101429.47;;;1.76;49.85
20656;BME280;10487;53.320;8.672;2023-04-28T02:10:08;101423.34;;;1.76;50.22
20656;BME280;10487;53.320;8.672;2023-04-28T02:13:10;101419.00;;;1.75;50.29
20656;BME280;10487;53.320;8.672;2023-04-28T02:16:12;101424.25;;;1.75;50.00
20656;BME280;10487;53.320;8.672;2023-04-28T02:19:14;101417.19;;;1.75;50.20
20656;BME280;10487;53.320;8.672;2023-04-28T02:22:16;101414.63;;;1.74;50.03
20656;BME280;10487;53.320;8.672;2023-04-28T02:25:17;101409.34;;;1.74;50.08
20656;BME280;10487;53.320;8.672;2023-04-28T02:28:19;101411.13;;;1.73;50.24
20656;BME280;10487;53.320;8.672;2023-04-28T02:31:21;101404.16;;;1.72;50.14
20656;BME280;10487;53.320;8.672;2023-04-28T02:34:22;101396.28;;;1.71;50.37
20656;BME280;10487;53.320;8.672;2023-04-28T02:37:24;101397.19;;;1.70;50.33
20656;BME280;10487;53.320;8.672;2023-04-28T02:40:26;101391.94;;;1.70;50.44
20656;BME280;10487;53.320;8.672;2023-04-28T02:43:28;101385.81;;;1.69;50.44
20656;BME280;10487;53.320;8.672;2023-04-28T02:46:30;101386.69;;;1.70;50.23
20656;BME280;10487;53.320;8.672;2023-04-28T02:49:32;101384.00;;;1.71;50.46
20656;BME280;10487;53.320;8.672;2023-04-28T02:52:33;101379.63;;;1.70;50.61
20656;BME280;10487;53.320;8.672;2023-04-28T02:55:35;101364.69;;;1.71;50.41
20656;BME280;10487;53.320;8.672;2023-04-28T02:58:37;101366.44;;;1.72;50.40
20656;BME280;10487;53.320;8.672;2023-04-28T03:01:39;101355.06;;;1.71;50.16
20656;BME280;10487;53.320;8.672;2023-04-28T03:04:40;101353.31;;;1.70;50.20
20656;BME280;10487;53.320;8.672;2023-04-28T03:07:42;101352.41;;;1.71;50.57
20656;BME280;10487;53.320;8.672;2023-04-28T03:10:44;101334.94;;;1.69;50.56
20656;BME280;10487;53.320;8.672;2023-04-28T03:13:45;101333.22;;;1.68;50.39
20656;BME280;10487;53.320;8.672;2023-04-28T03:16:47;101329.75;;;1.67;50.26
20656;BME280;10487;53.320;8.672;2023-04-28T03:19:48;101317.47;;;1.66;50.37
20656;BME280;10487;53.320;8.672;2023-04-28T03:22:50;101322.75;;;1.66;50.50
20656;BME280;10487;53.320;8.672;2023-04-28T03:25:51;101313.97;;;1.66;50.52
20656;BME280;10487;53.320;8.672;2023-04-28T03:28:53;101305.22;;;1.65;50.81
20656;BME280;10487;53.320;8.672;2023-04-28T03:31:55;101299.13;;;1.65;50.52
20656;BME280;10487;53.320;8.672;2023-04-28T03:34:57;101289.53;;;1.62;50.72
20656;BME280;10487;53.320;8.672;2023-04-28T03:37:59;101287.81;;;1.61;50.45
20656;BME280;10487;53.320;8.672;2023-04-28T03:41:00;101288.75;;;1.59;50.68
20656;BME280;10487;53.320;8.672;2023-04-28T03:44:02;101274.78;;;1.57;50.66
20656;BME280;10487;53.320;8.672;2023-04-28T03:47:04;101271.34;;;1.55;50.55
20656;BME280;10487;53.320;8.672;2023-04-28T03:50:06;101260.84;;;1.53;50.50
20656;BME280;10487;53.320;8.672;2023-04-28T03:53:08;101263.53;;;1.51;51.00
20656;BME280;10487;53.320;8.672;2023-04-28T03:56:09;101251.19;;;1.53;50.82
20656;BME280;10487;53.320;8.672;2023-04-28T03:59:11;101258.13;;;1.56;50.74
20656;BME280;10487;53.320;8.672;2023-04-28T04:02:13;101254.63;;;1.57;50.67
20656;BME280;10487;53.320;8.672;2023-04-28T04:05:15;101253.66;;;1.60;50.53
20656;BME280;10487;53.320;8.672;2023-04-28T04:08:16;101244.84;;;1.61;50.73
20656;BME280;10487;53.320;8.672;2023-04-28T04:11:19;101248.28;;;1.63;50.81
20656;BME280;10487;53.320;8.672;2023-04-28T04:14:21;101242.13;;;1.64;50.77
20656;BME280;10487;53.320;8.672;2023-04-28T04:17:23;101246.38;;;1.68;50.77
20656;BME280;10487;53.320;8.672;2023-04-28T04:20:24;101237.59;;;1.69;50.68
20656;BME280;10487;53.320;8.672;2023-04-28T04:23:26;101231.44;;;1.70;50.97
20656;BME280;10487;53.320;8.672;2023-04-28T04:26:28;101226.13;;;1.71;51.00
20656;BME280;10487;53.320;8.672;2023-04-28T04:29:29;101226.03;;;1.74;50.98
20656;BME280;10487;53.320;8.672;2023-04-28T04:32:32;101211.81;;;1.80;50.99
20656;BME280;10487;53.320;8.672;2023-04-28T04:35:34;101212.53;;;1.85;50.72
20656;BME280;10487;53.320;8.672;2023-04-28T04:38:35;101210.63;;;1.90;50.72
20656;BME280;10487;53.320;8.672;2023-04-28T04:41:37;101207.84;;;1.96;50.79
20656;BME280;10487;53.320;8.672;2023-04-28T04:44:39;101205.03;;;2.02;50.82
20656;BME280;10487;53.320;8.672;2023-04-28T04:47:40;101208.38;;;2.07;50.87
20656;BME280;10487;53.320;8.672;2023-04-28T04:50:42;101200.31;;;2.11;50.90
20656;BME280;10487;53.320;8.672;2023-04-28T04:53:44;101202.72;;;2.19;50.86
20656;BME280;10487;53.320;8.672;2023-04-28T04:56:46;101195.41;;;2.27;50.81
20656;BME280;10487;53.320;8.672;2023-04-28T04:59:48;101189.91;;;2.35;50.85
20656;BME280;10487;53.320;8.672;2023-04-28T05:02:49;101186.13;;;2.43;50.88
20656;BME280;10487;53.320;8.672;2023-04-28T05:05:51;101187.63;;;2.50;50.81
20656;BME280;10487;53.320;8.672;2023-04-28T05:08:53;101185.63;;;2.57;50.56
20656;BME280;10487;53.320;8.672;2023-04-28T05:11:56;101185.50;;;2.61;50.45
20656;BME280;10487;53.320;8.672;2023-04-28T05:14:58;101171.38;;;2.64;50.78
20656;BME280;10487;53.320;8.672;2023-04-28T05:18:00;101177.34;;;2.69;50.54
20656;BME280;10487;53.320;8.672;2023-04-28T05:21:06;101171.03;;;2.73;50.81
20656;BME280;10487;53.320;8.672;2023-04-28T05:24:08;101173.50;;;2.77;50.59
20656;BME280;10487;53.320;8.672;2023-04-28T05:27:10;101176.91;;;2.81;50.55
20656;BME280;10487;53.320;8.672;2023-04-28T05:30:11;101169.75;;;2.84;50.72
20656;BME280;10487;53.320;8.672;2023-04-28T05:33:13;101171.31;;;2.90;50.78
20656;BME280;10487;53.320;8.672;2023-04-28T05:36:15;101164.03;;;2.97;50.40
20656;BME280;10487;53.320;8.672;2023-04-28T05:39:17;101168.19;;;3.04;50.72
20656;BME280;10487;53.320;8.672;2023-04-28T05:42:18;101174.97;;;3.11;50.56
20656;BME280;10487;53.320;8.672;2023-04-28T05:45:20;101159.84;;;3.16;50.50
20656;BME280;10487;53.320;8.672;2023-04-28T05:48:22;101163.09;;;3.22;50.65
20656;BME280;10487;53.320;8.672;2023-04-28T05:51:24;101157.66;;;3.28;50.66
20656;BME280;10487;53.320;8.672;2023-04-28T05:54:25;101164.41;;;3.35;50.77
20656;BME280;10487;53.320;8.672;2023-04-28T05:57:27;101156.22;;;3.43;50.41
20656;BME280;10487;53.320;8.672;2023-04-28T06:00:34;101147.25;;;3.47;50.63
20656;BME280;10487;53.320;8.672;2023-04-28T06:03:36;101163.84;;;3.51;50.34
20656;BME280;10487;53.320;8.672;2023-04-28T06:06:38;101152.31;;;3.53;50.58
20656;BME280;10487;53.320;8.672;2023-04-28T06:09:39;101147.75;;;3.57;50.41
20656;BME280;10487;53.320;8.672;2023-04-28T06:12:41;101151.03;;;3.63;50.50
20656;BME280;10487;53.320;8.672;2023-04-28T06:15:43;101150.38;;;3.80;50.81
20656;BME280;10487;53.320;8.672;2023-04-28T06:18:44;101148.53;;;4.25;50.86
20656;BME280;10487;53.320;8.672;2023-04-28T06:21:48;101153.66;;;4.50;50.59
20656;BME280;10487;53.320;8.672;2023-04-28T06:24:53;101153.50;;;4.53;50.48
20656;BME280;10487;53.320;8.672;2023-04-28T06:27:55;101145.66;;;4.51;50.61
20656;BME280;10487;53.320;8.672;2023-04-28T06:30:56;101150.94;;;4.51;50.39
20656;BME280;10487;53.320;8.672;2023-04-28T06:34:00;101157.16;;;4.50;50.40
20656;BME280;10487;53.320;8.672;2023-04-28T06:37:01;101144.91;;;4.48;50.45
20656;BME280;10487;53.320;8.672;2023-04-28T06:40:03;101149.22;;;4.50;50.53
20656;BME280;10487;53.320;8.672;2023-04-28T06:43:05;101142.16;;;4.51;50.56
20656;BME280;10487;53.320;8.672;2023-04-28T06:46:07;101147.41;;;4.52;50.47
20656;BME280;10487;53.320;8.672;2023-04-28T06:49:09;101150.75;;;4.56;50.45
20656;BME280;10487;53.320;8.672;2023-04-28T06:52:10;101139.97;;;4.60;50.42
20656;BME280;10487;53.320;8.672;2023-04-28T06:55:14;101129.16;;;4.66;50.32
20656;BME280;10487;53.320;8.672;2023-04-28T06:58:16;101125.31;;;4.73;50.40
20656;BME280;10487;53.320;8.672;2023-04-28T07:01:18;101110.84;;;4.82;50.36
20656;BME280;10487;53.320;8.672;2023-04-28T07:04:19;101114.81;;;4.92;50.26
20656;BME280;10487;53.320;8.672;2023-04-28T07:07:21;101117.81;;;5.03;50.34
20656;BME280;10487;53.320;8.672;2023-04-28T07:10:23;101105.09;;;5.11;50.28
20656;BME280;10487;53.320;8.672;2023-04-28T07:13:25;101115.06;;;5.25;50.30
20656;BME280;10487;53.320;8.672;2023-04-28T07:16:26;101099.63;;;5.34;50.07
20656;BME280;10487;53.320;8.672;2023-04-28T07:19:28;101100.09;;;5.44;50.10
20656;BME280;10487;53.320;8.672;2023-04-28T07:22:30;101099.44;;;5.58;50.04
20656;BME280;10487;53.320;8.672;2023-04-28T07:25:31;101097.19;;;5.67;50.07
20656;BME280;10487;53.320;8.672;2023-04-28T07:28:33;101097.78;;;5.74;49.97
20656;BME280;10487;53.320;8.672;2023-04-28T07:31:35;101092.94;;;5.82;49.90
20656;BME280;10487;53.320;8.672;2023-04-28T07:34:37;101093.44;;;5.90;50.14
20656;BME280;10487;53.320;8.672;2023-04-28T07:37:38;101099.38;;;5.95;50.00
20656;BME280;10487;53.320;8.672;2023-04-28T07:40:41;101103.38;;;6.03;49.83
20656;BME280;10487;53.320;8.672;2023-04-28T07:43:44;101106.56;;;6.10;49.92
20656;BME280;10487;53.320;8.672;2023-04-28T07:46:45;101105.19;;;6.20;49.80
20656;BME280;10487;53.320;8.672;2023-04-28T07:49:47;101107.22;;;6.32;49.71
20656;BME280;10487;53.320;8.672;2023-04-28T07:52:48;101106.75;;;6.41;49.74
20656;BME280;10487;53.320;8.672;2023-04-28T07:55:50;101106.22;;;6.52;49.84
20656;BME280;10487;53.320;8.672;2023-04-28T07:58:52;101101.47;;;6.58;49.35
20656;BME280;10487;53.320;8.672;2023-04-28T08:01:53;101096.06;;;6.60;49.56
20656;BME280;10487;53.320;8.672;2023-04-28T08:04:55;101089.66;;;6.64;49.60
20656;BME280;10487;53.320;8.672;2023-04-28T08:07:58;101087.59;;;6.71;49.67
20656;BME280;10487;53.320;8.672;2023-04-28T08:11:00;101079.16;;;6.80;49.59
20656;BME280;10487;53.320;8.672;2023-04-28T08:14:02;101076.19;;;6.86;49.77
20656;BME280;10487;53.320;8.672;2023-04-28T08:17:04;101082.88;;;6.93;49.59
20656;BME280;10487;53.320;8.672;2023-04-28T08:20:06;101068.34;;;7.00;49.43
20656;BME280;10487;53.320;8.672;2023-04-28T08:23:08;101067.06;;;7.07;49.50
20656;BME280;10487;53.320;8.672;2023-04-28T08:26:10;101068.44;;;7.14;49.37
20656;BME280;10487;53.320;8.672;2023-04-28T08:29:11;101069.06;;;7.19;49.38
20656;BME280;10487;53.320;8.672;2023-04-28T08:32:13;101076.69;;;7.25;49.60
20656;BME280;10487;53.320;8.672;2023-04-28T08:35:14;101077.97;;;7.33;49.38
20656;BME280;10487;53.320;8.672;2023-04-28T08:38:16;101073.97;;;7.42;49.22
20656;BME280;10487;53.320;8.672;2023-04-28T08:41:18;101070.19;;;7.46;49.35
20656;BME280;10487;53.320;8.672;2023-04-28T08:44:20;101067.97;;;7.54;49.21
20656;BME280;10487;53.320;8.672;2023-04-28T08:47:38;101069.44;;;7.60;49.19
20656;BME280;10487;53.320;8.672;2023-04-28T08:50:43;101063.59;;;7.69;49.11
20656;BME280;10487;53.320;8.672;2023-04-28T08:53:48;101066.59;;;7.78;49.04
20656;BME280;10487;53.320;8.672;2023-04-28T08:56:55;101071.41;;;7.87;49.25
20656;BME280;10487;53.320;8.672;2023-04-28T08:59:57;101064.78;;;7.94;49.11
20656;BME280;10487;53.320;8.672;2023-04-28T09:02:59;101059.84;;;8.02;49.03
20656;BME280;10487;53.320;8.672;2023-04-28T09:06:01;101056.72;;;8.12;49.03
20656;BME280;10487;53.320;8.672;2023-04-28T09:12:35;101050.56;;;8.25;49.08
20656;BME280;10487;53.320;8.672;2023-04-28T09:15:38;101065.88;;;8.36;48.91
20656;BME280;10487;53.320;8.672;2023-04-28T09:18:55;101054.53;;;8.48;48.89
20656;BME280;10487;53.320;8.672;2023-04-28T09:21:58;101056.63;;;8.57;48.76
20656;BME280;10487;53.320;8.672;2023-04-28T09:25:11;101045.44;;;8.66;48.84
20656;BME280;10487;53.320;8.672;2023-04-28T09:28:22;101038.03;;;8.71;48.56
20656;BME280;10487;53.320;8.672;2023-04-28T09:31:24;101046.59;;;8.76;48.71
20656;BME280;10487;53.320;8.672;2023-04-28T09:34:42;101032.88;;;8.82;48.66
20656;BME280;10487;53.320;8.672;2023-04-28T09:37:45;101030.91;;;8.86;48.55
20656;BME280;10487;53.320;8.672;2023-04-28T09:41:01;101033.09;;;8.93;48.56
20656;BME280;10487;53.320;8.672;2023-04-28T09:44:16;101035.34;;;8.99;48.57
20656;BME280;10487;53.320;8.672;2023-04-28T09:47:19;101035.16;;;9.02;48.56
20656;BME280;10487;53.320;8.672;2023-04-28T09:50:22;101044.03;;;9.03;48.50
20656;BME280;10487;53.320;8.672;2023-04-28T09:53:25;101034.25;;;9.03;48.56
20656;BME280;10487;53.320;8.672;2023-04-28T09:56:28;101030.72;;;9.03;48.55
20656;BME280;10487;53.320;8.672;2023-04-28T09:59:30;101021.97;;;9.01;48.53
20656;BME280;10487;53.320;8.672;2023-04-28T10:02:34;101012.09;;;9.03;48.63
20656;BME280;10487;53.320;8.672;2023-04-28T10:05:40;101011.22;;;9.02;48.50
20656;BME280;10487;53.320;8.672;2023-04-28T10:08:42;101008.56;;;9.02;48.44
20656;BME280;10487;53.320;8.672;2023-04-28T10:11:45;101009.31;;;9.04;48.46
20656;BME280;10487;53.320;8.672;2023-04-28T10:14:48;101004.66;;;9.08;48.53
20656;BME280;10487;53.320;8.672;2023-04-28T10:17:57;100996.38;;;9.12;48.48
20656;BME280;10487;53.320;8.672;2023-04-28T10:21:00;101000.47;;;9.18;48.55
20656;BME280;10487;53.320;8.672;2023-04-28T10:27:08;100995.59;;;9.24;48.41
20656;BME280;10487;53.320;8.672;2023-04-28T10:33:28;100979.91;;;9.34;48.29
20656;BME280;10487;53.320;8.672;2023-04-28T10:36:49;100968.75;;;9.42;48.35
20656;BME280;10487;53.320;8.672;2023-04-28T10:43:33;100969.88;;;9.52;48.41
20656;BME280;10487;53.320;8.672;2023-04-28T10:47:05;100962.97;;;9.62;48.29
20656;BME280;10487;53.320;8.672;2023-04-28T10:50:08;100966.00;;;9.70;48.52
20656;BME280;10487;53.320;8.672;2023-04-28T10:53:11;100959.28;;;9.77;48.25
20656;BME280;10487;53.320;8.672;2023-04-28T10:59:25;100970.84;;;9.90;48.18
20656;BME280;10487;53.320;8.672;2023-04-28T11:02:37;100975.22;;;9.91;48.16
20656;BME280;10487;53.320;8.672;2023-04-28T11:12:33;100954.84;;;9.90;48.20
20656;BME280;10487;53.320;8.672;2023-04-28T11:15:35;100953.06;;;9.90;48.18
20656;BME280;10487;53.320;8.672;2023-04-28T11:18:52;100949.31;;;9.93;48.12
20656;BME280;10487;53.320;8.672;2023-04-28T11:21:57;100943.75;;;9.96;48.15
20656;BME280;10487;53.320;8.672;2023-04-28T11:25:00;100936.63;;;9.97;48.02
20656;BME280;10487;53.320;8.672;2023-04-28T11:28:03;100936.22;;;10.03;48.04
20656;BME280;10487;53.320;8.672;2023-04-28T11:31:14;100931.22;;;10.11;48.13
20656;BME280;10487;53.320;8.672;2023-04-28T11:34:24;100931.75;;;10.16;48.04
20656;BME280;10487;53.320;8.672;2023-04-28T11:37:26;100941.25;;;10.20;48.11
20656;BME280;10487;53.320;8.672;2023-04-28T11:40:27;100939.44;;;10.20;48.03
20656;BME280;10487;53.320;8.672;2023-04-28T11:43:29;100928.88;;;10.19;48.06
20656;BME280;10487;53.320;8.672;2023-04-28T11:46:53;100935.16;;;10.18;48.04
20656;BME280;10487;53.320;8.672;2023-04-28T11:49:56;100929.94;;;10.16;48.10
20656;BME280;10487;53.320;8.672;2023-04-28T11:52:59;100936.25;;;10.15;48.18
20656;BME280;10487;53.320;8.672;2023-04-28T11:56:05;100933.56;;;10.15;48.04
20656;BME280;10487;53.320;8.672;2023-04-28T11:59:10;100928.25;;;10.15;48.14
20656;BME280;10487;53.320;8.672;2023-04-28T12:02:12;100924.50;;;10.18;48.03
20656;BME280;10487;53.320;8.672;2023-04-28T12:05:14;100913.84;;;10.18;48.05
20656;BME280;10487;53.320;8.672;2023-04-28T12:08:27;100914.78;;;10.17;48.14
20656;BME280;10487;53.320;8.672;2023-04-28T12:11:29;100911.25;;;10.16;48.09
20656;BME280;10487;53.320;8.672;2023-04-28T12:14:32;100905.84;;;10.18;47.98
20656;BME280;10487;53.320;8.672;2023-04-28T12:17:53;100905.72;;;10.19;47.98
20656;BME280;10487;53.320;8.672;2023-04-28T12:20:55;100901.34;;;10.18;48.05
20656;BME280;10487;53.320;8.672;2023-04-28T12:23:56;100901.78;;;10.25;48.08
20656;BME280;10487;53.320;8.672;2023-04-28T12:27:17;100903.38;;;10.27;48.01
20656;BME280;10487;53.320;8.672;2023-04-28T12:33:25;100892.81;;;10.26;47.97
20656;BME280;10487;53.320;8.672;2023-04-28T12:36:27;100886.41;;;10.28;48.03
20656;BME280;10487;53.320;8.672;2023-04-28T12:39:30;100884.38;;;10.32;47.95
20656;BME280;10487;53.320;8.672;2023-04-28T12:42:33;100892.59;;;10.41;48.10
20656;BME280;10487;53.320;8.672;2023-04-28T12:45:35;100891.34;;;10.47;47.79
20656;BME280;10487;53.320;8.672;2023-04-28T12:48:39;100885.06;;;10.48;47.94
20656;BME280;10487;53.320;8.672;2023-04-28T12:51:40;100890.28;;;10.49;47.89
20656;BME280;10487;53.320;8.672;2023-04-28T12:54:42;100884.94;;;10.49;47.83
20656;BME280;10487;53.320;8.672;2023-04-28T12:57:47;100882.41;;;10.48;47.77
20656;BME280;10487;53.320;8.672;2023-04-28T13:00:49;100872.56;;;10.48;47.82
20656;BME280;10487;53.320;8.672;2023-04-28T13:03:50;100871.47;;;10.51;47.93
20656;BME280;10487;53.320;8.672;2023-04-28T13:06:54;100868.59;;;10.54;47.93
20656;BME280;10487;53.320;8.672;2023-04-28T13:09:56;100860.47;;;10.55;47.75
20656;BME280;10487;53.320;8.672;2023-04-28T13:12:58;100858.56;;;10.58;47.88
20656;BME280;10487;53.320;8.672;2023-04-28T13:16:00;100853.84;;;10.61;47.76
20656;BME280;10487;53.320;8.672;2023-04-28T13:19:03;100850.84;;;10.66;47.54
20656;BME280;10487;53.320;8.672;2023-04-28T13:22:04;100848.94;;;10.68;47.76
20656;BME280;10487;53.320;8.672;2023-04-28T13:25:07;100847.63;;;10.73;47.79
20656;BME280;10487;53.320;8.672;2023-04-28T13:28:09;100849.00;;;10.79;47.67
20656;BME280;10487;53.320;8.672;2023-04-28T13:31:13;100844.91;;;10.86;47.61
20656;BME280;10487;53.320;8.672;2023-04-28T13:34:15;100840.31;;;10.88;47.70
20656;BME280;10487;53.320;8.672;2023-04-28T13:37:18;100846.50;;;10.88;47.40
20656;BME280;10487;53.320;8.672;2023-04-28T13:40:20;100850.97;;;10.88;47.57
20656;BME280;10487;53.320;8.672;2023-04-28T13:43:21;100846.72;;;10.85;47.54
20656;BME280;10487;53.320;8.672;2023-04-28T13:46:23;100829.97;;;10.83;47.74
20656;BME280;10487;53.320;8.672;2023-04-28T13:49:25;100829.97;;;10.83;47.64
20656;BME280;10487;53.320;8.672;2023-04-28T13:52:27;100833.38;;;10.85;47.52
20656;BME280;10487;53.320;8.672;2023-04-28T13:55:28;100833.16;;;10.88;47.68
20656;BME280;10487;53.320;8.672;2023-04-28T13:58:31;100829.63;;;10.88;47.50
20656;BME280;10487;53.320;8.672;2023-04-28T14:01:32;100827.22;;;10.85;47.44
20656;BME280;10487;53.320;8.672;2023-04-28T14:04:34;100824.75;;;10.82;47.66
20656;BME280;10487;53.320;8.672;2023-04-28T14:07:36;100812.63;;;10.78;47.67
20656;BME280;10487;53.320;8.672;2023-04-28T14:10:38;100804.09;;;10.73;47.61
20656;BME280;10487;53.320;8.672;2023-04-28T14:13:39;100799.19;;;10.67;47.60
20656;BME280;10487;53.320;8.672;2023-04-28T14:16:41;100806.91;;;10.59;47.87
20656;BME280;10487;53.320;8.672;2023-04-28T14:19:43;100796.78;;;10.51;47.83
20656;BME280;10487;53.320;8.672;2023-04-28T14:22:44;100782.16;;;10.44;47.84
20656;BME280;10487;53.320;8.672;2023-04-28T14:25:46;100777.38;;;10.36;47.95
20656;BME280;10487;53.320;8.672;2023-04-28T14:28:48;100782.31;;;10.30;48.00
20656;BME280;10487;53.320;8.672;2023-04-28T14:31:50;100775.38;;;10.27;48.16
20656;BME280;10487;53.320;8.672;2023-04-28T14:34:51;100772.06;;;10.24;48.23
20656;BME280;10487;53.320;8.672;2023-04-28T14:37:54;100767.94;;;10.20;48.28
20656;BME280;10487;53.320;8.672;2023-04-28T14:40:55;100763.66;;;10.17;48.43
20656;BME280;10487;53.320;8.672;2023-04-28T14:43:57;100767.28;;;10.16;48.46
20656;BME280;10487;53.320;8.672;2023-04-28T14:47:00;100753.94;;;10.16;48.43
20656;BME280;10487;53.320;8.672;2023-04-28T14:50:02;100767.06;;;10.19;48.43
20656;BME280;10487;53.320;8.672;2023-04-28T14:53:04;100752.78;;;10.20;48.57
20656;BME280;10487;53.320;8.672;2023-04-28T14:56:07;100740.06;;;10.24;48.52
20656;BME280;10487;53.320;8.672;2023-04-28T14:59:17;100752.31;;;10.26;48.54
20656;BME280;10487;53.320;8.672;2023-04-28T15:02:20;100743.38;;;10.27;48.51
20656;BME280;10487;53.320;8.672;2023-04-28T15:05:28;100742.50;;;10.27;48.50
20656;BME280;10487;53.320;8.672;2023-04-28T15:08:31;100741.66;;;10.26;48.73
20656;BME280;10487;53.320;8.672;2023-04-28T15:11:33;100753.19;;;10.27;48.63
20656;BME280;10487;53.320;8.672;2023-04-28T15:14:34;100742.38;;;10.28;48.82
20656;BME280;10487;53.320;8.672;2023-04-28T15:17:36;100713.06;;;10.28;48.64
20656;BME280;10487;53.320;8.672;2023-04-28T15:20:38;100731.22;;;10.23;48.65
20656;BME280;10487;53.320;8.672;2023-04-28T15:23:40;100736.00;;;10.18;48.92
20656;BME280;10487;53.320;8.672;2023-04-28T15:26:42;100743.06;;;10.19;48.85
20656;BME280;10487;53.320;8.672;2023-04-28T15:29:43;100753.53;;;10.22;48.90
20656;BME280;10487;53.320;8.672;2023-04-28T15:32:45;100737.63;;;10.21;48.82
20656;BME280;10487;53.320;8.672;2023-04-28T15:35:49;100743.28;;;10.16;48.96
20656;BME280;10487;53.320;8.672;2023-04-28T15:38:50;100744.47;;;10.12;49.08
20656;BME280;10487;53.320;8.672;2023-04-28T15:41:52;100739.34;;;10.09;49.10
20656;BME280;10487;53.320;8.672;2023-04-28T15:47:56;100738.50;;;10.09;49.17
20656;BME280;10487;53.320;8.672;2023-04-28T15:50:58;100741.81;;;10.12;49.38
20656;BME280;10487;53.320;8.672;2023-04-28T15:53:59;100747.03;;;10.14;49.51
20656;BME280;10487;53.320;8.672;2023-04-28T15:57:01;100747.78;;;10.16;49.38
20656;BME280;10487;53.320;8.672;2023-04-28T16:00:04;100743.28;;;10.16;49.43
20656;BME280;10487;53.320;8.672;2023-04-28T16:03:07;100747.66;;;10.17;49.36
20656;BME280;10487;53.320;8.672;2023-04-28T16:06:09;100745.00;;;10.17;49.53
20656;BME280;10487;53.320;8.672;2023-04-28T16:09:11;100746.06;;;10.15;49.47
20656;BME280;10487;53.320;8.672;2023-04-28T16:12:13;100744.59;;;10.11;49.52
20656;BME280;10487;53.320;8.672;2023-04-28T16:15:14;100756.22;;;10.10;49.70
20656;BME280;10487;53.320;8.672;2023-04-28T16:18:16;100762.41;;;10.10;49.62
20656;BME280;10487;53.320;8.672;2023-04-28T16:21:18;100756.22;;;10.10;49.69
20656;BME280;10487;53.320;8.672;2023-04-28T16:24:20;100746.63;;;10.07;49.69
20656;BME280;10487;53.320;8.672;2023-04-28T16:27:22;100748.88;;;10.01;49.75
20656;BME280;10487;53.320;8.672;2023-04-28T16:30:24;100747.91;;;9.89;49.80
20656;BME280;10487;53.320;8.672;2023-04-28T16:33:26;100759.88;;;9.83;49.93
20656;BME280;10487;53.320;8.672;2023-04-28T16:36:31;100768.81;;;9.82;49.90